Time;durP1;ratioP1;P1;durP2;ratioP2;P2;SDS_P1;SDS_P2;PMS_P1;PMS_P2;Temp;Humidity;BMP_temperature;BMP_pressure;BME280_temperature;BME280_humidity;BME280_pressure;Samples;Min_cycle;Max_cycle;Signal;HPM_P1;HPM_P2
2023/10/26 00:01:59;;;;;;;33.90;14.82;;;;;;;;;;4952005;28;20042;-80
2023/10/26 00:04:25;;;;;;;25.05;14.88;;;;;;;;;;4954908;28;20040;-79
2023/10/26 00:06:51;;;;;;;25.35;13.48;;;;;;;;;;4955012;29;20096;-79
2023/10/26 00:09:17;;;;;;;23.65;14.18;;;;;;;;;;4954760;29;20043;-81
2023/10/26 00:11:43;;;;;;;120.10;17.48;;;;;;;;;;4951597;29;20058;-79
2023/10/26 00:14:10;;;;;;;20.98;14.70;;;;;;;;;;4954178;28;20031;-80
2023/10/26 00:16:36;;;;;;;52.58;15.90;;;;;;;;;;4937174;29;20051;-80
2023/10/26 00:19:02;;;;;;;28.17;14.98;;;;;;;;;;4953567;28;20023;-79
2023/10/26 00:21:28;;;;;;;40.22;16.45;;;;;;;;;;4954168;29;20027;-79
2023/10/26 00:23:54;;;;;;;41.97;17.33;;;;;;;;;;4953623;28;20043;-79
2023/10/26 00:26:20;;;;;;;33.95;17.77;;;;;;;;;;4953386;29;20043;-80
2023/10/26 00:28:46;;;;;;;38.42;16.23;;;;;;;;;;4951831;28;20396;-79
2023/10/26 00:31:13;;;;;;;42.08;18.05;;;;;;;;;;4953807;28;20616;-80
2023/10/26 00:33:39;;;;;;;74.13;17.20;;;;;;;;;;4952280;28;20042;-81
2023/10/26 00:36:05;;;;;;;25.83;15.85;;;;;;;;;;4954134;28;20046;-80
2023/10/26 00:38:32;;;;;;;25.15;16.30;;;;;;;;;;4951526;29;20066;-80
2023/10/26 00:40:58;;;;;;;31.90;16.13;;;;;;;;;;4951435;29;20623;-80
2023/10/26 00:43:24;;;;;;;40.40;18.15;;;;;;;;;;4953082;29;20488;-81
2023/10/26 00:45:52;;;;;;;40.97;17.95;;;;;;;;;;4949320;28;20493;-80
2023/10/26 00:48:18;;;;;;;31.33;15.60;;;;;;;;;;4953398;29;20119;-81
2023/10/26 00:50:45;;;;;;;26.20;15.65;;;;;;;;;;4953912;29;20043;-79
2023/10/26 00:53:12;;;;;;;25.88;15.48;;;;;;;;;;4951903;28;20050;-80
2023/10/26 00:55:39;;;;;;;51.58;18.77;;;;;;;;;;4950556;29;20035;-81
2023/10/26 00:58:06;;;;;;;32.45;17.58;;;;;;;;;;4945355;28;20066;-80
2023/10/26 01:00:32;;;;;;;34.45;19.88;;;;;;;;;;4953021;29;20043;-80
2023/10/26 01:02:58;;;;;;;30.55;19.33;;;;;;;;;;4952592;28;20035;-80
2023/10/26 01:05:24;;;;;;;37.78;19.38;;;;;;;;;;4952200;29;20031;-80
2023/10/26 01:07:50;;;;;;;39.22;19.10;;;;;;;;;;4947821;28;20042;-80
2023/10/26 01:10:16;;;;;;;41.55;21.15;;;;;;;;;;4948745;29;20059;-81
2023/10/26 01:12:43;;;;;;;31.63;19.60;;;;;;;;;;4952810;28;20066;-83
2023/10/26 01:15:09;;;;;;;42.25;21.33;;;;;;;;;;4950293;29;20090;-81
2023/10/26 01:17:35;;;;;;;41.72;20.45;;;;;;;;;;4951086;29;20046;-81
2023/10/26 01:20:02;;;;;;;47.58;23.30;;;;;;;;;;4953112;28;20031;-81
2023/10/26 01:22:31;;;;;;;34.85;20.58;;;;;;;;;;4953758;29;20043;-81
2023/10/26 01:24:58;;;;;;;33.70;20.30;;;;;;;;;;4952112;29;20066;-81
2023/10/26 01:27:24;;;;;;;35.38;20.52;;;;;;;;;;4952725;29;20031;-81
2023/10/26 01:29:50;;;;;;;42.78;22.10;;;;;;;;;;4950924;28;20470;-81
2023/10/26 01:32:16;;;;;;;56.90;25.45;;;;;;;;;;4936725;28;20110;-80
2023/10/26 01:34:42;;;;;;;44.17;23.42;;;;;;;;;;4951789;29;20035;-83
2023/10/26 01:37:08;;;;;;;48.15;25.60;;;;;;;;;;4952368;28;20084;-77
2023/10/26 01:39:35;;;;;;;40.15;23.42;;;;;;;;;;4948843;29;20047;-81
2023/10/26 01:42:01;;;;;;;43.97;24.05;;;;;;;;;;4941526;28;20566;-81
2023/10/26 01:44:27;;;;;;;51.22;24.95;;;;;;;;;;4939563;29;20035;-82
2023/10/26 01:46:53;;;;;;;42.15;23.15;;;;;;;;;;4948118;28;20031;-81
2023/10/26 01:49:19;;;;;;;53.25;26.13;;;;;;;;;;4946541;29;20382;-80
2023/10/26 01:51:45;;;;;;;52.58;25.65;;;;;;;;;;4944954;28;20163;-81
2023/10/26 01:54:11;;;;;;;57.58;28.05;;;;;;;;;;4936629;29;20042;-81
2023/10/26 01:56:37;;;;;;;51.53;27.65;;;;;;;;;;4952046;29;20038;-81
2023/10/26 01:59:03;;;;;;;56.38;26.63;;;;;;;;;;4947561;29;20039;-78
2023/10/26 02:01:30;;;;;;;55.38;25.30;;;;;;;;;;4950125;29;20054;-76
2023/10/26 02:03:56;;;;;;;47.85;25.08;;;;;;;;;;4942208;28;20035;-74
2023/10/26 02:06:22;;;;;;;45.88;24.05;;;;;;;;;;4941021;28;20496;-77
2023/10/26 02:08:48;;;;;;;50.38;23.52;;;;;;;;;;4951293;29;20407;-75
2023/10/26 02:11:14;;;;;;;41.58;23.35;;;;;;;;;;4933910;28;20098;-77
2023/10/26 02:13:40;;;;;;;47.42;22.90;;;;;;;;;;4947945;28;20488;-77
2023/10/26 02:16:07;;;;;;;44.40;24.58;;;;;;;;;;4953736;29;20122;-75
2023/10/26 02:18:33;;;;;;;48.83;24.35;;;;;;;;;;4955122;29;20835;-78
2023/10/26 02:21:00;;;;;;;39.55;23.80;;;;;;;;;;4954654;28;20039;-76
2023/10/26 02:23:26;;;;;;;45.20;24.27;;;;;;;;;;4954577;29;20045;-81
2023/10/26 02:25:52;;;;;;;52.15;26.88;;;;;;;;;;4953870;28;20114;-79
2023/10/26 02:28:19;;;;;;;64.75;26.33;;;;;;;;;;4954980;29;20035;-79
2023/10/26 02:30:46;;;;;;;50.53;24.88;;;;;;;;;;4953721;28;20046;-78
2023/10/26 02:33:12;;;;;;;64.80;26.08;;;;;;;;;;4951421;28;20130;-82
2023/10/26 02:35:41;;;;;;;50.80;25.05;;;;;;;;;;4949077;28;20035;-81
2023/10/26 02:38:07;;;;;;;61.45;26.77;;;;;;;;;;4952285;29;20031;-82
2023/10/26 02:40:36;;;;;;;51.55;25.30;;;;;;;;;;4954214;28;20035;-85
2023/10/26 02:43:02;;;;;;;56.50;25.92;;;;;;;;;;4951334;28;20035;-82
2023/10/26 02:45:28;;;;;;;66.07;27.08;;;;;;;;;;4954117;29;20051;-82
2023/10/26 02:47:54;;;;;;;47.17;25.92;;;;;;;;;;4951515;28;20532;-81
2023/10/26 02:50:20;;;;;;;66.65;26.83;;;;;;;;;;4933875;29;20055;-82
2023/10/26 02:52:46;;;;;;;77.90;28.70;;;;;;;;;;4938661;28;20035;-83
2023/10/26 02:55:12;;;;;;;71.50;28.38;;;;;;;;;;4936889;29;20046;-81
2023/10/26 02:57:38;;;;;;;82.78;28.35;;;;;;;;;;4936814;29;20126;-81
2023/10/26 03:00:05;;;;;;;80.47;27.83;;;;;;;;;;4950904;29;20090;-82
2023/10/26 03:02:33;;;;;;;172.05;32.65;;;;;;;;;;4934602;29;20110;-82
2023/10/26 03:04:59;;;;;;;84.97;27.85;;;;;;;;;;4952876;29;20047;-75
2023/10/26 03:07:25;;;;;;;133.07;41.30;;;;;;;;;;4954533;29;20046;-82
2023/10/26 03:09:51;;;;;;;173.32;31.65;;;;;;;;;;4951519;28;20094;-82
2023/10/26 03:12:19;;;;;;;179.30;49.33;;;;;;;;;;4950753;28;20465;-80
2023/10/26 03:14:45;;;;;;;294.92;37.28;;;;;;;;;;4952189;29;20043;-82
2023/10/26 03:17:15;;;;;;;226.85;30.45;;;;;;;;;;4951816;29;20403;-81
2023/10/26 03:19:42;;;;;;;266.30;35.03;;;;;;;;;;4953781;28;20038;-83
2023/10/26 03:22:08;;;;;;;204.13;29.95;;;;;;;;;;4955386;29;20105;-83
2023/10/26 03:24:34;;;;;;;280.45;34.72;;;;;;;;;;4939494;28;20062;-84
2023/10/26 03:27:00;;;;;;;176.90;32.63;;;;;;;;;;4936007;29;20481;-83
2023/10/26 03:29:26;;;;;;;187.23;32.90;;;;;;;;;;4950016;28;20059;-83
2023/10/26 03:31:52;;;;;;;165.88;31.50;;;;;;;;;;4941186;28;20366;-83
2023/10/26 03:34:18;;;;;;;267.42;35.75;;;;;;;;;;4954359;29;20055;-83
2023/10/26 03:36:44;;;;;;;363.60;37.53;;;;;;;;;;4953682;29;20114;-83
2023/10/26 03:39:10;;;;;;;307.25;36.00;;;;;;;;;;4951747;29;20463;-83
2023/10/26 03:41:36;;;;;;;163.55;27.40;;;;;;;;;;4937755;29;20031;-83
2023/10/26 03:44:02;;;;;;;328.00;34.55;;;;;;;;;;4937739;29;20477;-83
2023/10/26 03:46:29;;;;;;;171.40;29.20;;;;;;;;;;4954459;28;20039;-84
2023/10/26 03:48:55;;;;;;;194.00;29.08;;;;;;;;;;4953867;28;20039;-84
2023/10/26 03:51:21;;;;;;;137.65;27.63;;;;;;;;;;4954106;29;20027;-84
2023/10/26 03:53:48;;;;;;;83.28;27.13;;;;;;;;;;4952365;28;20127;-83
2023/10/26 03:56:14;;;;;;;170.45;32.03;;;;;;;;;;4937143;29;20090;-83
2023/10/26 03:58:40;;;;;;;175.77;31.98;;;;;;;;;;4936310;29;20379;-83
2023/10/26 04:01:06;;;;;;;119.13;30.63;;;;;;;;;;4938964;29;20035;-83
2023/10/26 04:03:32;;;;;;;82.28;30.40;;;;;;;;;;4952499;28;20043;-83
2023/10/26 04:05:58;;;;;;;76.78;32.58;;;;;;;;;;4934463;29;20047;-83
2023/10/26 04:08:24;;;;;;;58.40;30.20;;;;;;;;;;4936675;29;20034;-84
2023/10/26 04:10:50;;;;;;;80.68;31.85;;;;;;;;;;4936855;29;20027;-83
2023/10/26 04:13:16;;;;;;;52.22;31.17;;;;;;;;;;4936507;29;20546;-83
2023/10/26 04:15:43;;;;;;;82.43;32.50;;;;;;;;;;4952679;28;20039;-83
2023/10/26 04:18:09;;;;;;;55.83;31.63;;;;;;;;;;4949826;28;20023;-83
2023/10/26 04:20:35;;;;;;;85.65;32.50;;;;;;;;;;4934977;29;20388;-83
2023/10/26 04:23:01;;;;;;;56.63;31.23;;;;;;;;;;4953208;29;20086;-84
2023/10/26 04:25:30;;;;;;;56.55;31.50;;;;;;;;;;4952100;28;20116;-84
2023/10/26 04:27:56;;;;;;;81.75;31.40;;;;;;;;;;4949053;29;20495;-83
2023/10/26 04:30:22;;;;;;;87.43;33.00;;;;;;;;;;4939082;29;20034;-83
2023/10/26 04:32:49;;;;;;;57.40;29.65;;;;;;;;;;4953537;28;20039;-83
2023/10/26 04:35:15;;;;;;;57.60;31.05;;;;;;;;;;4952155;28;20460;-83
2023/10/26 04:37:41;;;;;;;71.88;31.15;;;;;;;;;;4935235;29;20392;-84
2023/10/26 04:40:07;;;;;;;113.35;35.03;;;;;;;;;;4948752;29;20071;-83
2023/10/26 04:42:33;;;;;;;76.78;32.20;;;;;;;;;;4943716;29;20031;-84
2023/10/26 04:44:59;;;;;;;115.10;33.97;;;;;;;;;;4952850;29;20039;-83
2023/10/26 04:47:25;;;;;;;141.32;37.20;;;;;;;;;;4951170;28;20054;-83
2023/10/26 04:49:51;;;;;;;111.65;33.33;;;;;;;;;;4937928;29;20501;-83
2023/10/26 04:52:20;;;;;;;188.38;38.20;;;;;;;;;;4952738;29;20046;-83
2023/10/26 04:54:46;;;;;;;203.85;40.65;;;;;;;;;;4951936;29;20034;-83
2023/10/26 04:57:12;;;;;;;156.77;34.08;;;;;;;;;;4952657;28;20035;-83
2023/10/26 04:59:38;;;;;;;554.78;50.30;;;;;;;;;;4935801;29;20035;-84
2023/10/26 05:02:17;;;;;;;538.55;50.53;;;;;;;;;;4929837;29;20100;-84
2023/10/26 05:04:45;;;;;;;579.58;48.42;;;;;;;;;;4938858;29;20124;-83
2023/10/26 05:07:11;;;;;;;502.67;43.45;;;;;;;;;;4948478;29;20035;-83
2023/10/26 05:09:38;;;;;;;613.22;49.47;;;;;;;;;;4934006;28;20039;-83
2023/10/26 05:12:04;;;;;;;408.90;37.30;;;;;;;;;;4951457;29;20397;-83
2023/10/26 05:14:30;;;;;;;558.13;44.53;;;;;;;;;;4952424;29;20093;-83
2023/10/26 05:16:57;;;;;;;661.45;49.08;;;;;;;;;;4951812;29;20448;-83
2023/10/26 05:19:23;;;;;;;540.58;43.17;;;;;;;;;;4936617;29;20393;-83
2023/10/26 05:21:49;;;;;;;775.28;51.33;;;;;;;;;;4952549;28;20035;-84
2023/10/26 05:24:15;;;;;;;379.70;36.40;;;;;;;;;;4950791;29;20035;-84
2023/10/26 05:26:41;;;;;;;598.97;48.10;;;;;;;;;;4950948;29;20043;-84
2023/10/26 05:29:07;;;;;;;514.10;43.67;;;;;;;;;;4933126;29;20024;-83
2023/10/26 05:31:33;;;;;;;536.05;43.72;;;;;;;;;;4948101;28;20036;-83
2023/10/26 05:33:59;;;;;;;373.70;39.30;;;;;;;;;;4932193;29;20036;-83
2023/10/26 05:36:25;;;;;;;509.08;43.90;;;;;;;;;;4935501;29;20034;-83
2023/10/26 05:38:51;;;;;;;250.13;33.60;;;;;;;;;;4945074;29;20055;-83
2023/10/26 05:41:17;;;;;;;516.50;46.10;;;;;;;;;;4944614;28;20469;-84
2023/10/26 05:43:44;;;;;;;170.70;33.00;;;;;;;;;;4925860;29;20060;-82
2023/10/26 05:46:10;;;;;;;331.23;36.80;;;;;;;;;;4952274;29;20047;-82
2023/10/26 05:48:36;;;;;;;396.10;38.25;;;;;;;;;;4951421;28;20027;-82
2023/10/26 05:51:02;;;;;;;312.33;35.63;;;;;;;;;;4936430;29;20094;-84
2023/10/26 05:53:31;;;;;;;518.95;51.53;;;;;;;;;;4949732;28;20480;-83
2023/10/26 05:55:58;;;;;;;363.38;36.53;;;;;;;;;;4951449;29;20046;-83
2023/10/26 05:58:25;;;;;;;367.48;36.00;;;;;;;;;;4947529;28;20042;-83
2023/10/26 06:00:51;;;;;;;259.92;30.75;;;;;;;;;;4939439;29;20027;-83
2023/10/26 06:03:17;;;;;;;255.80;31.73;;;;;;;;;;4945762;29;20473;-83
2023/10/26 06:05:43;;;;;;;347.83;34.85;;;;;;;;;;4951332;28;20043;-83
2023/10/26 06:08:09;;;;;;;323.88;34.97;;;;;;;;;;4933100;29;20066;-82
2023/10/26 06:10:36;;;;;;;251.23;31.75;;;;;;;;;;4935258;28;20046;-83
2023/10/26 06:13:02;;;;;;;179.60;28.42;;;;;;;;;;4939093;29;20039;-83
2023/10/26 06:15:28;;;;;;;219.07;30.42;;;;;;;;;;4950524;28;20070;-83
2023/10/26 06:17:54;;;;;;;335.05;36.78;;;;;;;;;;4935639;29;20035;-83
2023/10/26 06:20:24;;;;;;;233.25;31.80;;;;;;;;;;4934734;29;20071;-83
2023/10/26 06:22:50;;;;;;;366.88;36.75;;;;;;;;;;4950565;29;20086;-83
2023/10/26 06:25:16;;;;;;;215.07;33.17;;;;;;;;;;4933582;29;20129;-83
2023/10/26 06:27:42;;;;;;;138.50;27.25;;;;;;;;;;4950019;28;20062;-84
2023/10/26 06:30:08;;;;;;;299.48;34.17;;;;;;;;;;4934978;29;20083;-81
2023/10/26 06:32:36;;;;;;;260.15;34.35;;;;;;;;;;4948857;29;20044;-87
2023/10/26 06:35:02;;;;;;;231.85;32.22;;;;;;;;;;4950212;28;20031;-80
2023/10/26 06:37:28;;;;;;;375.45;37.72;;;;;;;;;;4947879;28;21005;-79
2023/10/26 06:39:54;;;;;;;344.63;34.67;;;;;;;;;;4952699;29;20400;-80
2023/10/26 06:42:20;;;;;;;324.65;34.97;;;;;;;;;;4951024;29;20040;-80
2023/10/26 06:44:46;;;;;;;344.17;36.85;;;;;;;;;;4950268;29;20039;-81
2023/10/26 06:47:13;;;;;;;121.95;28.77;;;;;;;;;;4945392;29;20052;-79
2023/10/26 06:49:41;;;;;;;263.50;33.50;;;;;;;;;;4933325;28;20035;-79
2023/10/26 06:52:07;;;;;;;395.73;39.13;;;;;;;;;;4947149;29;20457;-79
2023/10/26 06:54:33;;;;;;;218.18;31.25;;;;;;;;;;4945159;28;20544;-82
2023/10/26 06:56:59;;;;;;;279.63;32.88;;;;;;;;;;4948762;29;20503;-81
2023/10/26 06:59:25;;;;;;;164.75;30.70;;;;;;;;;;4950077;28;20042;-80
2023/10/26 07:01:51;;;;;;;308.58;34.88;;;;;;;;;;4952785;28;20032;-80
2023/10/26 07:04:17;;;;;;;184.45;26.15;;;;;;;;;;4949023;28;20066;-81
2023/10/26 07:06:44;;;;;;;165.60;27.17;;;;;;;;;;4953701;28;20408;-80
2023/10/26 07:09:11;;;;;;;278.17;30.42;;;;;;;;;;4954791;29;20041;-83
2023/10/26 07:11:37;;;;;;;278.88;31.20;;;;;;;;;;4953314;28;20039;-81
2023/10/26 07:14:03;;;;;;;350.95;30.05;;;;;;;;;;4955211;28;20463;-77
2023/10/26 07:16:30;;;;;;;356.55;31.95;;;;;;;;;;4955715;29;20446;-76
2023/10/26 07:18:56;;;;;;;413.67;34.00;;;;;;;;;;4955800;28;20031;-76
2023/10/26 07:21:22;;;;;;;231.60;25.65;;;;;;;;;;4955097;28;20031;-79
2023/10/26 07:23:48;;;;;;;340.83;29.75;;;;;;;;;;4954552;28;20035;-79
2023/10/26 07:26:18;;;;;;;329.63;25.98;;;;;;;;;;4948336;29;20036;-78
2023/10/26 07:28:44;;;;;;;278.48;25.02;;;;;;;;;;4944372;29;20439;-79
2023/10/26 07:31:16;;;;;;;322.83;29.38;;;;;;;;;;4954909;28;20046;-79
2023/10/26 07:33:42;;;;;;;276.75;24.92;;;;;;;;;;4943582;28;20042;-79
2023/10/26 07:36:10;;;;;;;244.30;23.75;;;;;;;;;;4946851;28;20090;-78
2023/10/26 07:38:36;;;;;;;318.63;28.88;;;;;;;;;;4960351;28;20047;-84
2023/10/26 07:41:03;;;;;;;290.60;27.17;;;;;;;;;;4943663;28;20048;-80
2023/10/26 07:43:30;;;;;;;222.55;26.08;;;;;;;;;;4949128;28;20517;-80
2023/10/26 07:45:56;;;;;;;251.65;29.10;;;;;;;;;;4954301;29;20035;-80
2023/10/26 07:48:22;;;;;;;199.80;26.45;;;;;;;;;;4954687;29;20094;-80
2023/10/26 07:50:50;;;;;;;273.20;27.75;;;;;;;;;;4955490;29;20039;-76
2023/10/26 07:53:17;;;;;;;311.85;31.77;;;;;;;;;;4953753;29;20035;-75
2023/10/26 07:55:46;;;;;;;328.15;30.05;;;;;;;;;;4951538;28;20031;-76
2023/10/26 07:58:12;;;;;;;237.40;25.92;;;;;;;;;;4935243;29;20059;-82
2023/10/26 08:00:38;;;;;;;260.20;27.33;;;;;;;;;;4954284;29;20122;-80
2023/10/26 08:03:04;;;;;;;273.02;29.98;;;;;;;;;;4955367;29;20070;-84
2023/10/26 08:05:31;;;;;;;237.07;29.13;;;;;;;;;;4965033;28;20039;-80
2023/10/26 08:07:57;;;;;;;252.13;29.55;;;;;;;;;;4955024;29;20042;-81
2023/10/26 08:10:26;;;;;;;214.02;29.60;;;;;;;;;;4954227;28;20496;-80
2023/10/26 08:12:52;;;;;;;257.27;31.33;;;;;;;;;;4945240;28;20524;-80
2023/10/26 08:15:19;;;;;;;220.80;28.30;;;;;;;;;;4951887;29;20106;-81
2023/10/26 08:17:45;;;;;;;223.40;30.63;;;;;;;;;;4953903;28;20027;-80
2023/10/26 08:20:12;;;;;;;244.20;32.33;;;;;;;;;;4953376;29;20031;-81
2023/10/26 08:22:38;;;;;;;241.73;32.08;;;;;;;;;;4953716;29;20062;-81
2023/10/26 08:25:04;;;;;;;223.85;32.70;;;;;;;;;;4952794;28;20043;-82
2023/10/26 08:27:31;;;;;;;170.52;29.70;;;;;;;;;;4954364;28;20891;-82
2023/10/26 08:29:57;;;;;;;118.43;28.33;;;;;;;;;;4952230;29;20533;-84
2023/10/26 08:32:23;;;;;;;136.68;31.40;;;;;;;;;;4954071;29;20397;-81
2023/10/26 08:34:50;;;;;;;176.02;33.25;;;;;;;;;;4954800;29;20053;-80
2023/10/26 08:37:17;;;;;;;240.20;36.40;;;;;;;;;;4945667;29;20122;-82
2023/10/26 08:39:45;;;;;;;193.57;31.55;;;;;;;;;;4947910;28;20052;-82
2023/10/26 08:42:11;;;;;;;121.47;29.17;;;;;;;;;;4952032;29;20035;-80
2023/10/26 08:44:38;;;;;;;236.10;30.98;;;;;;;;;;4954417;29;20515;-80
2023/10/26 08:47:04;;;;;;;170.05;31.23;;;;;;;;;;4952615;29;20701;-80
2023/10/26 08:49:31;;;;;;;241.63;34.47;;;;;;;;;;4950652;28;20053;-80
2023/10/26 08:51:58;;;;;;;154.70;28.15;;;;;;;;;;4948153;29;20174;-80
2023/10/26 08:54:26;;;;;;;112.95;27.70;;;;;;;;;;4951921;28;20430;-80
2023/10/26 08:56:52;;;;;;;168.45;30.92;;;;;;;;;;4951052;29;20046;-81
2023/10/26 08:59:18;;;;;;;126.53;26.90;;;;;;;;;;4944513;29;20039;-79
2023/10/26 09:01:47;;;;;;;230.50;32.65;;;;;;;;;;4947367;28;20035;-81
2023/10/26 09:04:14;;;;;;;151.27;30.67;;;;;;;;;;4948141;29;20221;-81
2023/10/26 09:06:47;;;;;;;125.90;29.58;;;;;;;;;;4948438;29;20488;-80
2023/10/26 09:09:16;;;;;;;153.10;30.38;;;;;;;;;;4952410;29;20147;-81
2023/10/26 09:11:46;;;;;;;106.95;28.90;;;;;;;;;;4951671;28;20061;-82
2023/10/26 09:14:13;;;;;;;86.30;27.38;;;;;;;;;;4953439;28;20101;-81
2023/10/26 09:16:41;;;;;;;127.18;30.10;;;;;;;;;;4954172;29;20134;-81
2023/10/26 09:19:07;;;;;;;102.13;28.50;;;;;;;;;;4952166;29;20027;-78
2023/10/26 09:21:50;;;;;;;75.97;26.83;;;;;;;;;;4949736;28;20177;-82
2023/10/26 09:24:20;;;;;;;72.95;27.85;;;;;;;;;;4944357;28;20393;-81
2023/10/26 09:26:46;;;;;;;102.03;29.88;;;;;;;;;;4951180;29;20027;-82
2023/10/26 09:29:12;;;;;;;107.57;29.27;;;;;;;;;;4951980;29;20043;-81
2023/10/26 09:31:52;;;;;;;52.47;26.88;;;;;;;;;;4950063;29;20485;-81
2023/10/26 09:34:18;;;;;;;68.60;27.60;;;;;;;;;;4942799;28;20042;-82
2023/10/26 09:36:57;;;;;;;58.00;28.42;;;;;;;;;;4950054;29;20087;-78
2023/10/26 09:39:24;;;;;;;49.88;29.95;;;;;;;;;;4950878;29;20051;-80
2023/10/26 09:41:50;;;;;;;52.35;29.95;;;;;;;;;;4950712;29;20385;-81
2023/10/26 09:44:16;;;;;;;48.53;29.13;;;;;;;;;;4949027;28;20039;-82
2023/10/26 09:46:42;;;;;;;43.40;27.30;;;;;;;;;;4942298;29;20043;-82
2023/10/26 09:49:08;;;;;;;59.15;27.40;;;;;;;;;;4953209;29;20031;-81
2023/10/26 09:51:34;;;;;;;50.45;27.85;;;;;;;;;;4951830;29;20026;-83
2023/10/26 09:54:02;;;;;;;56.33;27.98;;;;;;;;;;4951845;29;20505;-80
2023/10/26 09:56:29;;;;;;;39.03;25.88;;;;;;;;;;4951613;28;20023;-81
2023/10/26 09:58:55;;;;;;;42.58;27.88;;;;;;;;;;4945113;29;20262;-81
2023/10/26 10:01:34;;;;;;;40.47;26.70;;;;;;;;;;4951306;29;20031;-81
2023/10/26 10:04:00;;;;;;;44.45;26.52;;;;;;;;;;4952911;28;20060;-82
2023/10/26 10:06:45;;;;;;;41.75;27.25;;;;;;;;;;4951501;28;20110;-82
2023/10/26 10:09:11;;;;;;;40.22;25.90;;;;;;;;;;4951528;29;20038;-81
2023/10/26 10:11:38;;;;;;;39.65;25.95;;;;;;;;;;4951406;29;20030;-81
2023/10/26 10:14:04;;;;;;;41.05;27.27;;;;;;;;;;4951849;28;20040;-83
2023/10/26 10:16:37;;;;;;;37.45;25.63;;;;;;;;;;4948619;28;20473;-83
2023/10/26 10:19:23;;;;;;;38.63;24.80;;;;;;;;;;4946552;28;20589;-78
2023/10/26 10:21:49;;;;;;;39.28;28.48;;;;;;;;;;4947057;29;20131;-75
2023/10/26 10:24:34;;;;;;;41.50;28.70;;;;;;;;;;4952037;29;20096;-76
2023/10/26 10:27:15;;;;;;;35.58;24.60;;;;;;;;;;4951933;29;20035;-75
2023/10/26 10:29:42;;;;;;;36.20;24.50;;;;;;;;;;4944987;28;20098;-77
2023/10/26 10:32:08;;;;;;;36.63;25.13;;;;;;;;;;4951679;29;20038;-78
2023/10/26 10:34:42;;;;;;;34.78;24.42;;;;;;;;;;4950669;29;20111;-77
2023/10/26 10:37:09;;;;;;;37.50;24.63;;;;;;;;;;4950924;29;20015;-80
2023/10/26 10:39:39;;;;;;;33.92;24.77;;;;;;;;;;4953898;28;20071;-81
2023/10/26 10:42:09;;;;;;;33.03;23.35;;;;;;;;;;4952663;29;20034;-78
2023/10/26 10:44:36;;;;;;;34.80;22.88;;;;;;;;;;4951467;28;20039;-77
2023/10/26 10:47:02;;;;;;;33.15;23.13;;;;;;;;;;4955095;29;20034;-77
2023/10/26 10:49:29;;;;;;;32.47;22.90;;;;;;;;;;4956121;29;20031;-78
2023/10/26 10:51:55;;;;;;;26.13;21.33;;;;;;;;;;4954179;28;20063;-77
2023/10/26 10:54:25;;;;;;;29.33;22.38;;;;;;;;;;4953640;29;20485;-74
2023/10/26 10:56:51;;;;;;;36.97;26.10;;;;;;;;;;4953518;29;20074;-78
2023/10/26 10:59:21;;;;;;;41.17;28.33;;;;;;;;;;4955696;29;20031;-80
2023/10/26 11:01:51;;;;;;;44.20;28.20;;;;;;;;;;4953373;28;20465;-82
2023/10/26 11:04:17;;;;;;;31.15;22.13;;;;;;;;;;4944403;29;20112;-83
2023/10/26 11:06:47;;;;;;;27.65;22.35;;;;;;;;;;4944026;28;20074;-84
2023/10/26 11:09:23;;;;;;;31.10;22.65;;;;;;;;;;4953889;28;20067;-83
2023/10/26 11:11:49;;;;;;;29.30;21.67;;;;;;;;;;4954111;28;20420;-83
2023/10/26 11:14:17;;;;;;;27.73;21.48;;;;;;;;;;4954111;28;20123;-83
2023/10/26 11:16:44;;;;;;;28.15;20.90;;;;;;;;;;4954438;29;20122;-84
2023/10/26 11:19:10;;;;;;;24.60;19.30;;;;;;;;;;4953847;29;20081;-83
2023/10/26 11:21:36;;;;;;;23.10;18.85;;;;;;;;;;4954383;29;20391;-84
2023/10/26 11:24:02;;;;;;;26.33;19.85;;;;;;;;;;4950208;28;20463;-83
2023/10/26 11:26:28;;;;;;;24.83;20.55;;;;;;;;;;4953440;29;20031;-87
2023/10/26 11:28:54;;;;;;;24.30;19.70;;;;;;;;;;4955071;29;20031;-87
2023/10/26 11:31:41;;;;;;;28.50;20.55;;;;;;;;;;4954010;29;20034;-87
2023/10/26 11:34:08;;;;;;;26.52;19.98;;;;;;;;;;4954576;29;20035;-76
2023/10/26 11:36:34;;;;;;;24.15;19.02;;;;;;;;;;4954052;28;20050;-80
2023/10/26 11:39:01;;;;;;;24.95;19.55;;;;;;;;;;4955962;29;20106;-82
2023/10/26 11:41:30;;;;;;;25.98;19.80;;;;;;;;;;4952446;29;21615;-83
2023/10/26 11:43:57;;;;;;;27.55;18.50;;;;;;;;;;4954488;28;20066;-83
2023/10/26 11:46:35;;;;;;;23.98;18.02;;;;;;;;;;4950018;28;20032;-82
2023/10/26 11:49:03;;;;;;;27.10;18.73;;;;;;;;;;4947191;29;20039;-83
2023/10/26 11:51:29;;;;;;;26.00;17.48;;;;;;;;;;4954545;29;20053;-84
2023/10/26 11:53:57;;;;;;;21.60;17.70;;;;;;;;;;4948597;29;20039;-87
2023/10/26 11:56:24;;;;;;;20.20;17.42;;;;;;;;;;4951147;28;20036;-87
2023/10/26 11:58:50;;;;;;;24.00;16.85;;;;;;;;;;4953935;28;20473;-85
2023/10/26 12:01:16;;;;;;;20.95;17.15;;;;;;;;;;4952974;29;20492;-86
2023/10/26 12:03:47;;;;;;;24.38;17.60;;;;;;;;;;4954707;28;20071;-86
2023/10/26 12:06:13;;;;;;;20.63;16.23;;;;;;;;;;4953733;29;20039;-87
2023/10/26 12:08:39;;;;;;;24.55;18.85;;;;;;;;;;4952116;28;20046;-85
2023/10/26 12:11:05;;;;;;;21.48;17.02;;;;;;;;;;4950680;28;20397;-86
2023/10/26 12:13:35;;;;;;;25.05;17.95;;;;;;;;;;4953185;29;20070;-86
2023/10/26 12:16:02;;;;;;;24.40;18.40;;;;;;;;;;4951928;29;20429;-88
2023/10/26 12:18:28;;;;;;;23.15;17.52;;;;;;;;;;4952409;28;20031;-87
2023/10/26 12:20:54;;;;;;;23.92;18.40;;;;;;;;;;4943971;29;20031;-86
2023/10/26 12:23:20;;;;;;;25.10;17.73;;;;;;;;;;4951255;29;20118;-86
2023/10/26 12:25:46;;;;;;;23.63;18.00;;;;;;;;;;4952338;29;20593;-81
2023/10/26 12:28:12;;;;;;;30.15;19.75;;;;;;;;;;4953029;29;20032;-82
2023/10/26 12:30:38;;;;;;;25.65;19.38;;;;;;;;;;4953311;28;20036;-81
2023/10/26 12:33:04;;;;;;;23.08;17.05;;;;;;;;;;4951648;29;20053;-82
2023/10/26 12:35:30;;;;;;;57.88;17.73;;;;;;;;;;4953418;29;20046;-84
2023/10/26 12:37:56;;;;;;;20.73;15.20;;;;;;;;;;4952673;29;20038;-84
2023/10/26 12:40:22;;;;;;;23.38;16.17;;;;;;;;;;4952453;28;20142;-84
2023/10/26 12:42:48;;;;;;;19.88;15.27;;;;;;;;;;4953569;28;20361;-83
2023/10/26 12:45:17;;;;;;;23.05;15.20;;;;;;;;;;4952957;28;20039;-84
2023/10/26 12:47:43;;;;;;;23.17;16.20;;;;;;;;;;4952921;29;20433;-84
2023/10/26 12:50:09;;;;;;;21.70;15.63;;;;;;;;;;4938704;29;20106;-84
2023/10/26 12:52:35;;;;;;;19.60;15.05;;;;;;;;;;4956504;28;20110;-84
2023/10/26 12:55:01;;;;;;;19.77;15.13;;;;;;;;;;4953142;29;20122;-84
2023/10/26 12:57:27;;;;;;;22.27;14.02;;;;;;;;;;4952052;28;20042;-84
2023/10/26 12:59:53;;;;;;;21.65;16.52;;;;;;;;;;4948859;29;20117;-84
2023/10/26 13:02:19;;;;;;;22.80;16.58;;;;;;;;;;4952218;28;20074;-84
2023/10/26 13:04:45;;;;;;;68.78;30.48;;;;;;;;;;4947970;29;20041;-81
2023/10/26 13:07:11;;;;;;;39.03;26.55;;;;;;;;;;4952642;28;20023;-80
2023/10/26 13:09:40;;;;;;;30.42;19.48;;;;;;;;;;4964822;28;20042;-80
2023/10/26 13:12:07;;;;;;;20.13;15.05;;;;;;;;;;4953117;28;20090;-84
2023/10/26 13:14:33;;;;;;;17.38;14.40;;;;;;;;;;4948847;28;20804;-78
2023/10/26 13:16:59;;;;;;;17.15;14.02;;;;;;;;;;4948815;29;20109;-77
2023/10/26 13:19:27;;;;;;;19.60;13.73;;;;;;;;;;4951702;29;20047;-84
2023/10/26 13:21:53;;;;;;;16.35;12.70;;;;;;;;;;4952264;29;20477;-75
2023/10/26 13:24:19;;;;;;;18.13;13.77;;;;;;;;;;4952093;28;20039;-75
2023/10/26 13:26:45;;;;;;;23.98;13.40;;;;;;;;;;4957479;28;20040;-86
2023/10/26 13:29:11;;;;;;;16.67;13.63;;;;;;;;;;4952118;29;20035;-77
2023/10/26 13:31:37;;;;;;;15.50;12.88;;;;;;;;;;4953396;29;20491;-85
2023/10/26 13:34:03;;;;;;;15.68;12.73;;;;;;;;;;4951988;28;20195;-80
2023/10/26 13:36:29;;;;;;;18.20;12.55;;;;;;;;;;4951965;28;20094;-80
2023/10/26 13:38:55;;;;;;;17.02;12.35;;;;;;;;;;4951728;29;20051;-79
2023/10/26 13:41:24;;;;;;;16.83;12.70;;;;;;;;;;4952096;29;20520;-81
2023/10/26 13:43:50;;;;;;;16.65;14.02;;;;;;;;;;4951249;29;21252;-81
2023/10/26 13:46:16;;;;;;;33.70;22.70;;;;;;;;;;4952064;28;20572;-75
2023/10/26 13:48:42;;;;;;;62.00;41.05;;;;;;;;;;4949611;29;20059;-75
2023/10/26 13:51:08;;;;;;;21.05;14.85;;;;;;;;;;4951626;29;20114;-79
2023/10/26 13:53:34;;;;;;;18.67;15.20;;;;;;;;;;4948656;29;20408;-81
2023/10/26 13:56:01;;;;;;;18.55;13.02;;;;;;;;;;4948994;29;20040;-81
2023/10/26 13:58:27;;;;;;;15.60;13.85;;;;;;;;;;4951286;28;20122;-83
2023/10/26 14:00:53;;;;;;;16.17;13.43;;;;;;;;;;4949661;28;20061;-81
2023/10/26 14:03:19;;;;;;;16.90;12.15;;;;;;;;;;4951020;29;20488;-79
2023/10/26 14:05:51;;;;;;;15.25;12.50;;;;;;;;;;4951616;29;20039;-79
2023/10/26 14:08:17;;;;;;;17.48;13.25;;;;;;;;;;4949591;28;20027;-79
2023/10/26 14:10:44;;;;;;;16.77;12.73;;;;;;;;;;4950804;29;20039;-79